sensor_id;sensor_type;location;lat;lon;timestamp;P1;durP1;ratioP1;P2;durP2;ratioP2
19163;SDS011;9714;51.208;4.242;2023-03-12T00:00:07;18.67;;;4.57;;
19163;SDS011;9714;51.208;4.242;2023-03-12T00:02:35;13.80;;;4.20;;
19163;SDS011;9714;51.208;4.242;2023-03-12T00:05:02;20.03;;;4.33;;
19163;SDS011;9714;51.208;4.242;2023-03-12T00:07:30;11.17;;;4.00;;
19163;SDS011;9714;51.208;4.242;2023-03-12T00:09:59;16.23;;;4.07;;
19163;SDS011;9714;51.208;4.242;2023-03-12T00:12:27;18.07;;;4.27;;
19163;SDS011;9714;51.208;4.242;2023-03-12T00:14:53;21.80;;;3.70;;
19163;SDS011;9714;51.208;4.242;2023-03-12T00:17:22;17.80;;;4.43;;
19163;SDS011;9714;51.208;4.242;2023-03-12T00:19:51;12.83;;;3.90;;
19163;SDS011;9714;51.208;4.242;2023-03-12T00:22:20;18.60;;;4.40;;
19163;SDS011;9714;51.208;4.242;2023-03-12T00:24:50;17.37;;;4.80;;
19163;SDS011;9714;51.208;4.242;2023-03-12T00:27:20;14.80;;;4.63;;
19163;SDS011;9714;51.208;4.242;2023-03-12T00:29:48;18.53;;;3.93;;
19163;SDS011;9714;51.208;4.242;2023-03-12T00:32:16;15.80;;;4.37;;
19163;SDS011;9714;51.208;4.242;2023-03-12T00:34:48;15.20;;;4.40;;
19163;SDS011;9714;51.208;4.242;2023-03-12T00:37:16;18.93;;;3.97;;
19163;SDS011;9714;51.208;4.242;2023-03-12T00:39:44;12.07;;;4.03;;
19163;SDS011;9714;51.208;4.242;2023-03-12T00:42:12;13.70;;;4.27;;
19163;SDS011;9714;51.208;4.242;2023-03-12T00:44:41;9.57;;;3.40;;
19163;SDS011;9714;51.208;4.242;2023-03-12T00:47:09;14.80;;;4.37;;
19163;SDS011;9714;51.208;4.242;2023-03-12T00:49:38;14.47;;;4.13;;
19163;SDS011;9714;51.208;4.242;2023-03-12T00:52:08;14.37;;;4.37;;
19163;SDS011;9714;51.208;4.242;2023-03-12T00:54:35;12.50;;;4.10;;
19163;SDS011;9714;51.208;4.242;2023-03-12T00:57:02;14.13;;;5.00;;
19163;SDS011;9714;51.208;4.242;2023-03-12T00:59:29;13.13;;;4.80;;
19163;SDS011;9714;51.208;4.242;2023-03-12T01:01:59;17.77;;;4.67;;
19163;SDS011;9714;51.208;4.242;2023-03-12T01:04:26;15.00;;;4.50;;
19163;SDS011;9714;51.208;4.242;2023-03-12T01:06:54;13.07;;;4.70;;
19163;SDS011;9714;51.208;4.242;2023-03-12T01:09:22;14.00;;;4.30;;
19163;SDS011;9714;51.208;4.242;2023-03-12T01:11:49;15.03;;;5.07;;
19163;SDS011;9714;51.208;4.242;2023-03-12T01:14:18;15.50;;;5.20;;
19163;SDS011;9714;51.208;4.242;2023-03-12T01:16:45;14.67;;;4.53;;
19163;SDS011;9714;51.208;4.242;2023-03-12T01:19:13;14.20;;;4.60;;
19163;SDS011;9714;51.208;4.242;2023-03-12T01:21:43;15.97;;;5.03;;
19163;SDS011;9714;51.208;4.242;2023-03-12T01:24:10;13.67;;;4.17;;
19163;SDS011;9714;51.208;4.242;2023-03-12T01:26:38;15.90;;;4.73;;
19163;SDS011;9714;51.208;4.242;2023-03-12T01:29:06;16.57;;;5.60;;
19163;SDS011;9714;51.208;4.242;2023-03-12T01:31:33;16.30;;;5.30;;
19163;SDS011;9714;51.208;4.242;2023-03-12T01:34:01;13.33;;;4.40;;
19163;SDS011;9714;51.208;4.242;2023-03-12T01:36:29;19.83;;;5.23;;
19163;SDS011;9714;51.208;4.242;2023-03-12T01:38:58;15.47;;;4.43;;
19163;SDS011;9714;51.208;4.242;2023-03-12T01:41:28;16.30;;;4.67;;
19163;SDS011;9714;51.208;4.242;2023-03-12T01:43:57;17.00;;;4.57;;
19163;SDS011;9714;51.208;4.242;2023-03-12T01:46:27;15.20;;;5.03;;
19163;SDS011;9714;51.208;4.242;2023-03-12T01:48:56;14.83;;;4.70;;
19163;SDS011;9714;51.208;4.242;2023-03-12T01:51:27;12.47;;;4.00;;
19163;SDS011;9714;51.208;4.242;2023-03-12T01:53:59;13.23;;;4.40;;
19163;SDS011;9714;51.208;4.242;2023-03-12T01:56:31;16.93;;;5.13;;
19163;SDS011;9714;51.208;4.242;2023-03-12T01:59:02;16.17;;;4.97;;
19163;SDS011;9714;51.208;4.242;2023-03-12T02:01:33;10.83;;;4.57;;
19163;SDS011;9714;51.208;4.242;2023-03-12T02:04:00;15.33;;;4.60;;
19163;SDS011;9714;51.208;4.242;2023-03-12T02:06:29;17.33;;;4.73;;
19163;SDS011;9714;51.208;4.242;2023-03-12T02:09:03;16.70;;;5.20;;
19163;SDS011;9714;51.208;4.242;2023-03-12T02:11:32;15.57;;;4.30;;
19163;SDS011;9714;51.208;4.242;2023-03-12T02:14:01;11.90;;;3.90;;
19163;SDS011;9714;51.208;4.242;2023-03-12T02:16:28;16.60;;;4.00;;
19163;SDS011;9714;51.208;4.242;2023-03-12T02:18:55;15.80;;;4.73;;
19163;SDS011;9714;51.208;4.242;2023-03-12T02:21:26;18.30;;;5.00;;
19163;SDS011;9714;51.208;4.242;2023-03-12T02:23:59;16.83;;;6.67;;
19163;SDS011;9714;51.208;4.242;2023-03-12T02:26:33;17.27;;;4.77;;
19163;SDS011;9714;51.208;4.242;2023-03-12T02:29:02;17.27;;;4.20;;
19163;SDS011;9714;51.208;4.242;2023-03-12T02:31:30;13.63;;;4.07;;
19163;SDS011;9714;51.208;4.242;2023-03-12T02:34:02;12.87;;;3.83;;
19163;SDS011;9714;51.208;4.242;2023-03-12T02:36:30;12.27;;;3.67;;
19163;SDS011;9714;51.208;4.242;2023-03-12T02:38:57;12.70;;;4.00;;
19163;SDS011;9714;51.208;4.242;2023-03-12T02:41:25;13.83;;;4.20;;
19163;SDS011;9714;51.208;4.242;2023-03-12T02:43:57;22.10;;;4.10;;
19163;SDS011;9714;51.208;4.242;2023-03-12T02:46:28;14.23;;;3.90;;
19163;SDS011;9714;51.208;4.242;2023-03-12T02:48:57;12.30;;;3.43;;
19163;SDS011;9714;51.208;4.242;2023-03-12T02:51:25;9.97;;;3.20;;
19163;SDS011;9714;51.208;4.242;2023-03-12T02:53:52;14.20;;;3.30;;
19163;SDS011;9714;51.208;4.242;2023-03-12T02:56:21;14.00;;;4.50;;
19163;SDS011;9714;51.208;4.242;2023-03-12T02:58:49;11.10;;;3.07;;
19163;SDS011;9714;51.208;4.242;2023-03-12T03:01:19;11.90;;;3.47;;
19163;SDS011;9714;51.208;4.242;2023-03-12T03:03:46;15.60;;;3.40;;
19163;SDS011;9714;51.208;4.242;2023-03-12T03:06:14;13.43;;;3.27;;
19163;SDS011;9714;51.208;4.242;2023-03-12T03:08:42;13.97;;;3.93;;
19163;SDS011;9714;51.208;4.242;2023-03-12T03:11:09;13.60;;;3.50;;
19163;SDS011;9714;51.208;4.242;2023-03-12T03:13:39;15.50;;;4.07;;
19163;SDS011;9714;51.208;4.242;2023-03-12T03:16:06;9.77;;;3.27;;
19163;SDS011;9714;51.208;4.242;2023-03-12T03:18:35;10.33;;;3.30;;
19163;SDS011;9714;51.208;4.242;2023-03-12T03:21:04;14.40;;;4.50;;
19163;SDS011;9714;51.208;4.242;2023-03-12T03:23:33;14.40;;;3.80;;
19163;SDS011;9714;51.208;4.242;2023-03-12T03:26:00;10.77;;;3.83;;
19163;SDS011;9714;51.208;4.242;2023-03-12T03:28:28;18.73;;;4.47;;
19163;SDS011;9714;51.208;4.242;2023-03-12T03:30:57;16.87;;;4.20;;
19163;SDS011;9714;51.208;4.242;2023-03-12T03:33:26;15.17;;;3.40;;
19163;SDS011;9714;51.208;4.242;2023-03-12T03:35:55;15.00;;;3.47;;
19163;SDS011;9714;51.208;4.242;2023-03-12T03:38:23;13.57;;;3.50;;
19163;SDS011;9714;51.208;4.242;2023-03-12T03:40:51;12.83;;;3.27;;
19163;SDS011;9714;51.208;4.242;2023-03-12T03:43:18;12.37;;;3.80;;
19163;SDS011;9714;51.208;4.242;2023-03-12T03:45:46;13.50;;;3.83;;
19163;SDS011;9714;51.208;4.242;2023-03-12T03:48:14;13.23;;;3.70;;
19163;SDS011;9714;51.208;4.242;2023-03-12T03:50:41;15.40;;;4.50;;
19163;SDS011;9714;51.208;4.242;2023-03-12T03:53:09;11.23;;;3.77;;
19163;SDS011;9714;51.208;4.242;2023-03-12T03:55:37;15.67;;;3.70;;
19163;SDS011;9714;51.208;4.242;2023-03-12T03:58:05;12.30;;;3.70;;
19163;SDS011;9714;51.208;4.242;2023-03-12T04:00:32;13.97;;;3.63;;
19163;SDS011;9714;51.208;4.242;2023-03-12T04:03:00;11.73;;;3.50;;
19163;SDS011;9714;51.208;4.242;2023-03-12T04:05:27;16.37;;;4.83;;
19163;SDS011;9714;51.208;4.242;2023-03-12T04:07:56;17.20;;;3.57;;
19163;SDS011;9714;51.208;4.242;2023-03-12T04:10:28;13.00;;;3.73;;
19163;SDS011;9714;51.208;4.242;2023-03-12T04:12:56;14.10;;;3.30;;
19163;SDS011;9714;51.208;4.242;2023-03-12T04:15:25;17.13;;;3.93;;
19163;SDS011;9714;51.208;4.242;2023-03-12T04:17:52;14.50;;;4.27;;
19163;SDS011;9714;51.208;4.242;2023-03-12T04:20:19;12.93;;;4.07;;
19163;SDS011;9714;51.208;4.242;2023-03-12T04:22:47;13.60;;;3.50;;
19163;SDS011;9714;51.208;4.242;2023-03-12T04:25:14;14.00;;;3.87;;
19163;SDS011;9714;51.208;4.242;2023-03-12T04:27:43;11.77;;;3.60;;
19163;SDS011;9714;51.208;4.242;2023-03-12T04:30:10;15.83;;;3.80;;
19163;SDS011;9714;51.208;4.242;2023-03-12T04:32:38;16.43;;;4.30;;
19163;SDS011;9714;51.208;4.242;2023-03-12T04:35:05;15.13;;;4.10;;
19163;SDS011;9714;51.208;4.242;2023-03-12T04:37:32;14.13;;;3.97;;
19163;SDS011;9714;51.208;4.242;2023-03-12T04:39:59;15.30;;;3.73;;
19163;SDS011;9714;51.208;4.242;2023-03-12T04:42:28;13.13;;;3.90;;
19163;SDS011;9714;51.208;4.242;2023-03-12T04:44:59;16.23;;;4.70;;
19163;SDS011;9714;51.208;4.242;2023-03-12T04:47:27;12.97;;;4.30;;
19163;SDS011;9714;51.208;4.242;2023-03-12T04:49:58;14.13;;;4.43;;
19163;SDS011;9714;51.208;4.242;2023-03-12T04:52:25;18.47;;;4.40;;
19163;SDS011;9714;51.208;4.242;2023-03-12T04:54:52;14.10;;;4.67;;
19163;SDS011;9714;51.208;4.242;2023-03-12T04:57:19;13.73;;;4.20;;
19163;SDS011;9714;51.208;4.242;2023-03-12T04:59:46;15.80;;;4.67;;
19163;SDS011;9714;51.208;4.242;2023-03-12T05:02:17;13.87;;;4.20;;
19163;SDS011;9714;51.208;4.242;2023-03-12T05:04:44;15.73;;;4.17;;
19163;SDS011;9714;51.208;4.242;2023-03-12T05:07:11;17.33;;;4.30;;
19163;SDS011;9714;51.208;4.242;2023-03-12T05:09:38;15.73;;;4.77;;
19163;SDS011;9714;51.208;4.242;2023-03-12T05:12:05;18.20;;;5.33;;
19163;SDS011;9714;51.208;4.242;2023-03-12T05:14:33;16.13;;;4.77;;
19163;SDS011;9714;51.208;4.242;2023-03-12T05:17:00;12.90;;;4.60;;
19163;SDS011;9714;51.208;4.242;2023-03-12T05:19:30;15.13;;;5.27;;
19163;SDS011;9714;51.208;4.242;2023-03-12T05:21:57;11.80;;;4.37;;
19163;SDS011;9714;51.208;4.242;2023-03-12T05:24:24;14.27;;;4.33;;
19163;SDS011;9714;51.208;4.242;2023-03-12T05:26:52;13.90;;;4.40;;
19163;SDS011;9714;51.208;4.242;2023-03-12T05:29:19;14.30;;;4.73;;
19163;SDS011;9714;51.208;4.242;2023-03-12T05:31:47;17.73;;;4.90;;
19163;SDS011;9714;51.208;4.242;2023-03-12T05:34:14;16.47;;;5.10;;
19163;SDS011;9714;51.208;4.242;2023-03-12T05:36:44;11.93;;;4.87;;
19163;SDS011;9714;51.208;4.242;2023-03-12T05:39:11;17.60;;;5.00;;
19163;SDS011;9714;51.208;4.242;2023-03-12T05:41:38;17.47;;;5.60;;
19163;SDS011;9714;51.208;4.242;2023-03-12T05:44:09;15.03;;;6.13;;
19163;SDS011;9714;51.208;4.242;2023-03-12T05:46:37;17.80;;;5.83;;
19163;SDS011;9714;51.208;4.242;2023-03-12T05:49:04;16.13;;;5.80;;
19163;SDS011;9714;51.208;4.242;2023-03-12T05:51:31;15.10;;;6.07;;
19163;SDS011;9714;51.208;4.242;2023-03-12T05:54:01;15.30;;;6.83;;
19163;SDS011;9714;51.208;4.242;2023-03-12T05:56:28;15.00;;;6.63;;
19163;SDS011;9714;51.208;4.242;2023-03-12T05:58:56;15.30;;;6.83;;
19163;SDS011;9714;51.208;4.242;2023-03-12T06:01:24;17.57;;;7.30;;
19163;SDS011;9714;51.208;4.242;2023-03-12T06:03:52;14.77;;;8.00;;
19163;SDS011;9714;51.208;4.242;2023-03-12T06:06:21;16.53;;;7.00;;
19163;SDS011;9714;51.208;4.242;2023-03-12T06:08:49;16.47;;;7.20;;
19163;SDS011;9714;51.208;4.242;2023-03-12T06:11:18;17.77;;;8.37;;
19163;SDS011;9714;51.208;4.242;2023-03-12T06:13:45;19.60;;;8.70;;
19163;SDS011;9714;51.208;4.242;2023-03-12T06:16:14;21.47;;;8.77;;
19163;SDS011;9714;51.208;4.242;2023-03-12T06:18:43;18.83;;;9.23;;
19163;SDS011;9714;51.208;4.242;2023-03-12T06:21:10;17.80;;;8.90;;
19163;SDS011;9714;51.208;4.242;2023-03-12T06:23:38;16.90;;;8.40;;
19163;SDS011;9714;51.208;4.242;2023-03-12T06:26:06;20.00;;;10.07;;
19163;SDS011;9714;51.208;4.242;2023-03-12T06:28:35;20.20;;;10.30;;
19163;SDS011;9714;51.208;4.242;2023-03-12T06:31:03;19.57;;;10.63;;
19163;SDS011;9714;51.208;4.242;2023-03-12T06:33:33;21.37;;;11.07;;
19163;SDS011;9714;51.208;4.242;2023-03-12T06:36:02;21.50;;;11.40;;
19163;SDS011;9714;51.208;4.242;2023-03-12T06:38:31;23.40;;;11.40;;
19163;SDS011;9714;51.208;4.242;2023-03-12T06:40:59;25.47;;;12.00;;
19163;SDS011;9714;51.208;4.242;2023-03-12T06:43:27;22.27;;;12.03;;
19163;SDS011;9714;51.208;4.242;2023-03-12T06:45:57;27.13;;;11.23;;
19163;SDS011;9714;51.208;4.242;2023-03-12T06:48:26;22.80;;;11.27;;
19163;SDS011;9714;51.208;4.242;2023-03-12T06:50:55;27.17;;;13.10;;
19163;SDS011;9714;51.208;4.242;2023-03-12T06:53:22;21.87;;;12.23;;
19163;SDS011;9714;51.208;4.242;2023-03-12T06:55:50;23.27;;;11.77;;
19163;SDS011;9714;51.208;4.242;2023-03-12T06:58:17;21.50;;;11.90;;
19163;SDS011;9714;51.208;4.242;2023-03-12T07:00:44;31.47;;;13.77;;
19163;SDS011;9714;51.208;4.242;2023-03-12T07:03:13;26.17;;;12.53;;
19163;SDS011;9714;51.208;4.242;2023-03-12T07:05:42;31.73;;;13.33;;
19163;SDS011;9714;51.208;4.242;2023-03-12T07:08:10;27.43;;;14.13;;
19163;SDS011;9714;51.208;4.242;2023-03-12T07:10:38;28.73;;;14.60;;
19163;SDS011;9714;51.208;4.242;2023-03-12T07:13:05;30.67;;;14.90;;
19163;SDS011;9714;51.208;4.242;2023-03-12T07:15:34;31.43;;;15.00;;
19163;SDS011;9714;51.208;4.242;2023-03-12T07:18:03;32.60;;;15.57;;
19163;SDS011;9714;51.208;4.242;2023-03-12T07:20:42;29.97;;;14.50;;
19163;SDS011;9714;51.208;4.242;2023-03-12T07:23:11;29.20;;;14.37;;
19163;SDS011;9714;51.208;4.242;2023-03-12T07:25:39;29.10;;;15.30;;
19163;SDS011;9714;51.208;4.242;2023-03-12T07:28:09;33.43;;;16.13;;
19163;SDS011;9714;51.208;4.242;2023-03-12T07:30:38;40.13;;;18.17;;
19163;SDS011;9714;51.208;4.242;2023-03-12T07:33:07;33.77;;;16.60;;
19163;SDS011;9714;51.208;4.242;2023-03-12T07:35:35;40.13;;;17.90;;
19163;SDS011;9714;51.208;4.242;2023-03-12T07:38:06;35.93;;;17.13;;
19163;SDS011;9714;51.208;4.242;2023-03-12T07:40:36;42.73;;;18.20;;
19163;SDS011;9714;51.208;4.242;2023-03-12T07:43:04;38.73;;;16.03;;
19163;SDS011;9714;51.208;4.242;2023-03-12T07:45:36;43.87;;;18.57;;
19163;SDS011;9714;51.208;4.242;2023-03-12T07:48:03;51.97;;;17.23;;
19163;SDS011;9714;51.208;4.242;2023-03-12T07:50:31;46.23;;;18.73;;
19163;SDS011;9714;51.208;4.242;2023-03-12T07:52:58;46.90;;;19.23;;
19163;SDS011;9714;51.208;4.242;2023-03-12T07:55:27;40.93;;;16.43;;
19163;SDS011;9714;51.208;4.242;2023-03-12T07:57:54;48.40;;;18.43;;
19163;SDS011;9714;51.208;4.242;2023-03-12T08:00:23;47.77;;;20.33;;
19163;SDS011;9714;51.208;4.242;2023-03-12T08:02:52;49.97;;;18.90;;
19163;SDS011;9714;51.208;4.242;2023-03-12T08:05:19;42.00;;;18.27;;
19163;SDS011;9714;51.208;4.242;2023-03-12T08:07:49;57.07;;;18.20;;
19163;SDS011;9714;51.208;4.242;2023-03-12T08:10:16;51.17;;;17.70;;
19163;SDS011;9714;51.208;4.242;2023-03-12T08:12:46;60.10;;;21.13;;
19163;SDS011;9714;51.208;4.242;2023-03-12T08:15:13;41.73;;;16.33;;
19163;SDS011;9714;51.208;4.242;2023-03-12T08:17:46;47.13;;;17.00;;
19163;SDS011;9714;51.208;4.242;2023-03-12T08:20:13;57.00;;;18.60;;
19163;SDS011;9714;51.208;4.242;2023-03-12T08:22:41;55.90;;;20.27;;
19163;SDS011;9714;51.208;4.242;2023-03-12T08:25:09;56.40;;;18.83;;
19163;SDS011;9714;51.208;4.242;2023-03-12T08:27:37;57.07;;;17.17;;
19163;SDS011;9714;51.208;4.242;2023-03-12T08:30:08;58.77;;;19.50;;
19163;SDS011;9714;51.208;4.242;2023-03-12T08:32:36;48.90;;;18.43;;
19163;SDS011;9714;51.208;4.242;2023-03-12T08:35:03;57.10;;;17.40;;
19163;SDS011;9714;51.208;4.242;2023-03-12T08:37:30;60.07;;;18.70;;
19163;SDS011;9714;51.208;4.242;2023-03-12T08:39:58;49.00;;;16.63;;
19163;SDS011;9714;51.208;4.242;2023-03-12T08:42:25;46.23;;;16.83;;
19163;SDS011;9714;51.208;4.242;2023-03-12T08:44:52;51.10;;;17.57;;
19163;SDS011;9714;51.208;4.242;2023-03-12T08:47:20;57.67;;;17.07;;
19163;SDS011;9714;51.208;4.242;2023-03-12T08:49:47;31.83;;;13.87;;
19163;SDS011;9714;51.208;4.242;2023-03-12T08:52:15;42.50;;;15.20;;
19163;SDS011;9714;51.208;4.242;2023-03-12T08:54:42;48.63;;;13.13;;
19163;SDS011;9714;51.208;4.242;2023-03-12T08:57:10;37.13;;;11.23;;
19163;SDS011;9714;51.208;4.242;2023-03-12T08:59:38;46.53;;;13.73;;
19163;SDS011;9714;51.208;4.242;2023-03-12T09:02:05;39.27;;;12.07;;
19163;SDS011;9714;51.208;4.242;2023-03-12T09:04:36;34.03;;;10.60;;
19163;SDS011;9714;51.208;4.242;2023-03-12T09:07:03;34.43;;;10.07;;
19163;SDS011;9714;51.208;4.242;2023-03-12T09:09:31;44.13;;;9.97;;
19163;SDS011;9714;51.208;4.242;2023-03-12T09:11:58;37.87;;;10.07;;
19163;SDS011;9714;51.208;4.242;2023-03-12T09:14:25;34.57;;;9.17;;
19163;SDS011;9714;51.208;4.242;2023-03-12T09:16:52;35.10;;;9.33;;
19163;SDS011;9714;51.208;4.242;2023-03-12T09:19:19;32.13;;;8.00;;
19163;SDS011;9714;51.208;4.242;2023-03-12T09:21:47;38.90;;;8.20;;
19163;SDS011;9714;51.208;4.242;2023-03-12T09:24:14;43.37;;;9.40;;
19163;SDS011;9714;51.208;4.242;2023-03-12T09:26:41;31.17;;;8.47;;
19163;SDS011;9714;51.208;4.242;2023-03-12T09:29:08;40.93;;;9.27;;
19163;SDS011;9714;51.208;4.242;2023-03-12T09:31:35;44.50;;;8.87;;
19163;SDS011;9714;51.208;4.242;2023-03-12T09:34:03;45.07;;;9.00;;
19163;SDS011;9714;51.208;4.242;2023-03-12T09:36:31;40.63;;;8.60;;
19163;SDS011;9714;51.208;4.242;2023-03-12T09:39:00;43.57;;;8.60;;
19163;SDS011;9714;51.208;4.242;2023-03-12T09:41:28;36.50;;;8.60;;
19163;SDS011;9714;51.208;4.242;2023-03-12T09:43:57;44.87;;;8.70;;
19163;SDS011;9714;51.208;4.242;2023-03-12T09:46:32;44.93;;;9.27;;
19163;SDS011;9714;51.208;4.242;2023-03-12T09:49:03;36.83;;;7.43;;
19163;SDS011;9714;51.208;4.242;2023-03-12T09:51:37;47.33;;;8.90;;
19163;SDS011;9714;51.208;4.242;2023-03-12T09:54:12;44.60;;;9.30;;
19163;SDS011;9714;51.208;4.242;2023-03-12T09:56:49;32.57;;;8.07;;
19163;SDS011;9714;51.208;4.242;2023-03-12T09:59:17;53.20;;;9.87;;
19163;SDS011;9714;51.208;4.242;2023-03-12T10:01:46;48.40;;;9.90;;
19163;SDS011;9714;51.208;4.242;2023-03-12T10:04:27;46.50;;;9.63;;
19163;SDS011;9714;51.208;4.242;2023-03-12T10:07:04;33.83;;;8.30;;
19163;SDS011;9714;51.208;4.242;2023-03-12T10:09:46;61.77;;;12.87;;
19163;SDS011;9714;51.208;4.242;2023-03-12T10:12:29;47.33;;;11.97;;
19163;SDS011;9714;51.208;4.242;2023-03-12T10:15:13;53.33;;;10.30;;
19163;SDS011;9714;51.208;4.242;2023-03-12T10:17:49;49.27;;;12.70;;
19163;SDS011;9714;51.208;4.242;2023-03-12T10:20:28;49.73;;;11.23;;
19163;SDS011;9714;51.208;4.242;2023-03-12T10:23:07;40.53;;;10.87;;
19163;SDS011;9714;51.208;4.242;2023-03-12T10:25:44;43.23;;;10.30;;
19163;SDS011;9714;51.208;4.242;2023-03-12T10:28:14;40.87;;;10.40;;
19163;SDS011;9714;51.208;4.242;2023-03-12T10:30:45;44.87;;;10.33;;
19163;SDS011;9714;51.208;4.242;2023-03-12T10:33:17;43.00;;;10.43;;
19163;SDS011;9714;51.208;4.242;2023-03-12T10:35:46;45.97;;;9.47;;
19163;SDS011;9714;51.208;4.242;2023-03-12T10:38:14;37.23;;;8.30;;
19163;SDS011;9714;51.208;4.242;2023-03-12T10:40:44;42.30;;;9.63;;
19163;SDS011;9714;51.208;4.242;2023-03-12T10:43:12;41.83;;;9.67;;
19163;SDS011;9714;51.208;4.242;2023-03-12T10:45:42;44.73;;;8.43;;
19163;SDS011;9714;51.208;4.242;2023-03-12T10:48:17;39.63;;;8.80;;
19163;SDS011;9714;51.208;4.242;2023-03-12T10:50:59;38.73;;;8.93;;
19163;SDS011;9714;51.208;4.242;2023-03-12T10:53:29;36.10;;;7.73;;
19163;SDS011;9714;51.208;4.242;2023-03-12T10:56:02;38.87;;;8.53;;
19163;SDS011;9714;51.208;4.242;2023-03-12T10:58:35;47.33;;;8.87;;
19163;SDS011;9714;51.208;4.242;2023-03-12T11:01:04;38.70;;;8.37;;
19163;SDS011;9714;51.208;4.242;2023-03-12T11:03:32;38.90;;;8.80;;
19163;SDS011;9714;51.208;4.242;2023-03-12T11:05:59;40.10;;;8.53;;
19163;SDS011;9714;51.208;4.242;2023-03-12T11:08:28;41.07;;;8.57;;
19163;SDS011;9714;51.208;4.242;2023-03-12T11:10:57;38.43;;;7.67;;
19163;SDS011;9714;51.208;4.242;2023-03-12T11:13:28;39.77;;;8.03;;
19163;SDS011;9714;51.208;4.242;2023-03-12T11:15:57;42.43;;;8.17;;
19163;SDS011;9714;51.208;4.242;2023-03-12T11:21:12;44.57;;;8.80;;
19163;SDS011;9714;51.208;4.242;2023-03-12T11:23:42;39.10;;;6.80;;
19163;SDS011;9714;51.208;4.242;2023-03-12T11:26:13;40.73;;;7.77;;
19163;SDS011;9714;51.208;4.242;2023-03-12T11:28:45;35.10;;;8.33;;
19163;SDS011;9714;51.208;4.242;2023-03-12T11:31:15;37.77;;;7.87;;
19163;SDS011;9714;51.208;4.242;2023-03-12T11:33:48;39.57;;;8.77;;
19163;SDS011;9714;51.208;4.242;2023-03-12T11:36:24;37.40;;;7.63;;
19163;SDS011;9714;51.208;4.242;2023-03-12T11:39:10;42.07;;;7.30;;
19163;SDS011;9714;51.208;4.242;2023-03-12T11:41:49;41.23;;;6.80;;
19163;SDS011;9714;51.208;4.242;2023-03-12T11:44:32;32.27;;;6.90;;
19163;SDS011;9714;51.208;4.242;2023-03-12T11:47:18;35.30;;;6.63;;
19163;SDS011;9714;51.208;4.242;2023-03-12T11:50:09;36.83;;;7.53;;
19163;SDS011;9714;51.208;4.242;2023-03-12T11:52:46;38.20;;;7.27;;
19163;SDS011;9714;51.208;4.242;2023-03-12T11:55:25;37.83;;;6.87;;
19163;SDS011;9714;51.208;4.242;2023-03-12T11:58:07;38.20;;;6.77;;
19163;SDS011;9714;51.208;4.242;2023-03-12T12:00:47;31.20;;;6.33;;
19163;SDS011;9714;51.208;4.242;2023-03-12T12:03:26;32.37;;;6.87;;
19163;SDS011;9714;51.208;4.242;2023-03-12T12:06:16;27.20;;;5.53;;
19163;SDS011;9714;51.208;4.242;2023-03-12T12:08:54;28.03;;;6.50;;
19163;SDS011;9714;51.208;4.242;2023-03-12T12:11:32;33.00;;;6.83;;
19163;SDS011;9714;51.208;4.242;2023-03-12T12:14:14;30.63;;;6.40;;
19163;SDS011;9714;51.208;4.242;2023-03-12T12:16:56;29.97;;;5.57;;
19163;SDS011;9714;51.208;4.242;2023-03-12T12:19:56;33.03;;;6.03;;
19163;SDS011;9714;51.208;4.242;2023-03-12T12:22:35;30.60;;;6.10;;
19163;SDS011;9714;51.208;4.242;2023-03-12T12:28:07;27.37;;;5.57;;
19163;SDS011;9714;51.208;4.242;2023-03-12T12:30:51;29.87;;;6.53;;
19163;SDS011;9714;51.208;4.242;2023-03-12T12:33:35;28.07;;;5.63;;
19163;SDS011;9714;51.208;4.242;2023-03-12T12:36:15;38.80;;;6.77;;
19163;SDS011;9714;51.208;4.242;2023-03-12T12:38:44;39.80;;;6.90;;
19163;SDS011;9714;51.208;4.242;2023-03-12T12:41:16;27.83;;;5.60;;
19163;SDS011;9714;51.208;4.242;2023-03-12T12:43:45;33.07;;;6.80;;
19163;SDS011;9714;51.208;4.242;2023-03-12T12:46:15;38.57;;;6.63;;
19163;SDS011;9714;51.208;4.242;2023-03-12T12:48:47;39.10;;;7.20;;
19163;SDS011;9714;51.208;4.242;2023-03-12T12:51:19;30.20;;;6.23;;
19163;SDS011;9714;51.208;4.242;2023-03-12T12:53:50;44.90;;;7.00;;
19163;SDS011;9714;51.208;4.242;2023-03-12T12:56:28;44.80;;;8.77;;
19163;SDS011;9714;51.208;4.242;2023-03-12T12:59:05;41.13;;;6.10;;
19163;SDS011;9714;51.208;4.242;2023-03-12T13:01:52;36.63;;;7.37;;
19163;SDS011;9714;51.208;4.242;2023-03-12T13:04:23;37.53;;;7.57;;
19163;SDS011;9714;51.208;4.242;2023-03-12T13:06:54;37.27;;;6.93;;
19163;SDS011;9714;51.208;4.242;2023-03-12T13:09:33;40.93;;;7.03;;
19163;SDS011;9714;51.208;4.242;2023-03-12T13:12:06;40.47;;;7.03;;
19163;SDS011;9714;51.208;4.242;2023-03-12T13:14:43;37.70;;;7.63;;
19163;SDS011;9714;51.208;4.242;2023-03-12T13:17:29;36.83;;;6.87;;
19163;SDS011;9714;51.208;4.242;2023-03-12T13:20:10;36.67;;;6.97;;
19163;SDS011;9714;51.208;4.242;2023-03-12T13:22:44;37.90;;;8.30;;
19163;SDS011;9714;51.208;4.242;2023-03-12T13:25:26;28.13;;;5.27;;
19163;SDS011;9714;51.208;4.242;2023-03-12T13:28:15;37.50;;;6.53;;
19163;SDS011;9714;51.208;4.242;2023-03-12T13:31:01;29.83;;;6.20;;
19163;SDS011;9714;51.208;4.242;2023-03-12T13:33:37;32.57;;;7.50;;
19163;SDS011;9714;51.208;4.242;2023-03-12T13:36:18;31.00;;;5.20;;
19163;SDS011;9714;51.208;4.242;2023-03-12T13:38:53;24.40;;;5.13;;
19163;SDS011;9714;51.208;4.242;2023-03-12T13:41:36;30.57;;;8.00;;
19163;SDS011;9714;51.208;4.242;2023-03-12T13:47:04;28.47;;;5.20;;
19163;SDS011;9714;51.208;4.242;2023-03-12T13:49:50;24.53;;;4.80;;
19163;SDS011;9714;51.208;4.242;2023-03-12T13:52:27;31.83;;;5.67;;
19163;SDS011;9714;51.208;4.242;2023-03-12T13:55:06;34.13;;;6.17;;
19163;SDS011;9714;51.208;4.242;2023-03-12T13:57:46;41.27;;;6.10;;
19163;SDS011;9714;51.208;4.242;2023-03-12T14:00:16;32.40;;;6.63;;
19163;SDS011;9714;51.208;4.242;2023-03-12T14:02:50;38.33;;;6.53;;
19163;SDS011;9714;51.208;4.242;2023-03-12T14:05:20;31.33;;;6.13;;
19163;SDS011;9714;51.208;4.242;2023-03-12T14:08:00;21.47;;;4.83;;
19163;SDS011;9714;51.208;4.242;2023-03-12T14:10:47;31.07;;;5.30;;
19163;SDS011;9714;51.208;4.242;2023-03-12T14:13:23;24.70;;;4.40;;
19163;SDS011;9714;51.208;4.242;2023-03-12T14:16:00;29.07;;;5.60;;
19163;SDS011;9714;51.208;4.242;2023-03-12T14:18:34;29.63;;;5.80;;
19163;SDS011;9714;51.208;4.242;2023-03-12T14:21:05;29.90;;;4.87;;
19163;SDS011;9714;51.208;4.242;2023-03-12T14:23:36;33.20;;;5.90;;
19163;SDS011;9714;51.208;4.242;2023-03-12T14:26:04;30.37;;;5.47;;
19163;SDS011;9714;51.208;4.242;2023-03-12T14:31:04;32.20;;;5.60;;
19163;SDS011;9714;51.208;4.242;2023-03-12T14:33:33;30.27;;;6.13;;
19163;SDS011;9714;51.208;4.242;2023-03-12T14:36:08;28.97;;;5.40;;
19163;SDS011;9714;51.208;4.242;2023-03-12T14:38:43;38.30;;;6.33;;
19163;SDS011;9714;51.208;4.242;2023-03-12T14:41:13;28.23;;;6.67;;
19163;SDS011;9714;51.208;4.242;2023-03-12T14:43:44;32.67;;;5.90;;
19163;SDS011;9714;51.208;4.242;2023-03-12T14:46:13;37.77;;;5.60;;
19163;SDS011;9714;51.208;4.242;2023-03-12T14:48:44;27.90;;;5.53;;
19163;SDS011;9714;51.208;4.242;2023-03-12T14:51:15;40.50;;;6.07;;
19163;SDS011;9714;51.208;4.242;2023-03-12T14:53:47;32.43;;;5.83;;
19163;SDS011;9714;51.208;4.242;2023-03-12T14:56:21;44.27;;;6.47;;
19163;SDS011;9714;51.208;4.242;2023-03-12T14:58:54;35.23;;;5.70;;
19163;SDS011;9714;51.208;4.242;2023-03-12T15:01:22;31.33;;;5.43;;
19163;SDS011;9714;51.208;4.242;2023-03-12T15:03:51;28.67;;;5.47;;
19163;SDS011;9714;51.208;4.242;2023-03-12T15:06:23;33.80;;;6.40;;
19163;SDS011;9714;51.208;4.242;2023-03-12T15:08:55;31.67;;;6.67;;
19163;SDS011;9714;51.208;4.242;2023-03-12T15:11:24;38.00;;;6.50;;
19163;SDS011;9714;51.208;4.242;2023-03-12T15:13:53;31.27;;;6.27;;
19163;SDS011;9714;51.208;4.242;2023-03-12T15:16:24;34.27;;;6.23;;